EZY54GT LEVC-EGKK
Flight info
| Callsign | EZY54GT |
|---|---|
| Flight time | N/A |
| Altitude | 38000 |
| Route | SOPET N608 MATEX Z475 OSLAP Y90 USKAR N863 GIROM DCT AGN/N0411F340 DCT SECHE DCT UVELI DCT CNA DCT MANAK UY110 REVTU UP88 VASUX |
| Aircraft | A320/M-SDE2E3FGHIJ1RWXYZ/LB1 |
Departure
| Time | 2026-05-04 17:55 |
|---|---|
| Airport | Valencia Airport (LEVC) |
Arrival
| Time | N/A |
|---|---|
| Airport | London Gatwick Airport (EGKK) |
| Time | Latitude | Longitude | Altitude | Speed | Heading |
|---|---|---|---|---|---|
| 2026-05-04 17:15 | 39.49003 | -0.47227 | 189 ft | 0 kts | 24° |
| 2026-05-04 17:45 | 39.48982 | -0.47240 | 202 ft | 4 kts | 24° |
| 2026-05-04 17:45 | 39.48959 | -0.47253 | 197 ft | 4 kts | 21° |
| 2026-05-04 17:46 | 39.48934 | -0.47265 | 203 ft | 4 kts | 17° |
| 2026-05-04 17:46 | 39.48922 | -0.47269 | 201 ft | 0 kts | 17° |
| 2026-05-04 17:49 | 39.48932 | -0.47274 | 204 ft | 3 kts | 336° |
| 2026-05-04 17:49 | 39.48939 | -0.47307 | 198 ft | 5 kts | 280° |
| 2026-05-04 17:49 | 39.48956 | -0.47366 | 198 ft | 11 kts | 296° |
| 2026-05-04 17:49 | 39.48993 | -0.47460 | 203 ft | 11 kts | 297° |
| 2026-05-04 17:50 | 39.49024 | -0.47541 | 210 ft | 11 kts | 296° |
| 2026-05-04 17:50 | 39.49059 | -0.47653 | 201 ft | 15 kts | 281° |
| 2026-05-04 17:50 | 39.49037 | -0.47787 | 205 ft | 16 kts | 256° |
| 2026-05-04 17:50 | 39.49042 | -0.47924 | 208 ft | 16 kts | 297° |
| 2026-05-04 17:51 | 39.49098 | -0.48069 | 213 ft | 20 kts | 296° |
| 2026-05-04 17:51 | 39.49162 | -0.48234 | 210 ft | 21 kts | 296° |
| 2026-05-04 17:51 | 39.49229 | -0.48412 | 214 ft | 23 kts | 296° |
| 2026-05-04 17:51 | 39.49299 | -0.48599 | 218 ft | 24 kts | 296° |
| 2026-05-04 17:52 | 39.49378 | -0.48806 | 221 ft | 27 kts | 296° |
| 2026-05-04 17:52 | 39.49463 | -0.49028 | 222 ft | 26 kts | 296° |
| 2026-05-04 17:52 | 39.49546 | -0.49245 | 227 ft | 28 kts | 296° |
| 2026-05-04 17:52 | 39.49622 | -0.49446 | 229 ft | 26 kts | 296° |
| 2026-05-04 17:53 | 39.49703 | -0.49659 | 239 ft | 27 kts | 296° |
| 2026-05-04 17:53 | 39.49783 | -0.49870 | 242 ft | 20 kts | 296° |
| 2026-05-04 17:53 | 39.49789 | -0.49959 | 245 ft | 8 kts | 209° |
| 2026-05-04 17:53 | 39.49745 | -0.49987 | 246 ft | 8 kts | 206° |
| 2026-05-04 17:54 | 39.49676 | -0.50031 | 247 ft | 11 kts | 205° |
| 2026-05-04 17:54 | 39.49635 | -0.50009 | 246 ft | 0 kts | 116° |
| 2026-05-04 17:54 | 39.49634 | -0.50007 | 246 ft | 0 kts | 116° |
| 2026-05-04 17:54 | 39.49626 | -0.49985 | 245 ft | 12 kts | 116° |
| 2026-05-04 17:55 | 39.49458 | -0.49544 | 229 ft | 94 kts | 116° |
| 2026-05-04 17:55 | 39.49076 | -0.48532 | 214 ft | 153 kts | 115° |
| 2026-05-04 17:55 | 39.48602 | -0.47261 | 831 ft | 157 kts | 116° |
| 2026-05-04 17:55 | 39.48087 | -0.45990 | 1543 ft | 163 kts | 120° |
| 2026-05-04 17:56 | 39.47521 | -0.44608 | 2016 ft | 183 kts | 120° |
| 2026-05-04 17:56 | 39.46865 | -0.43124 | 2460 ft | 204 kts | 126° |
| 2026-05-04 17:56 | 39.45956 | -0.41579 | 2918 ft | 227 kts | 130° |
| 2026-05-04 17:56 | 39.44902 | -0.39933 | 3501 ft | 247 kts | 130° |
| 2026-05-04 17:57 | 39.43797 | -0.38121 | 4163 ft | 266 kts | 128° |
| 2026-05-04 17:57 | 39.42609 | -0.36175 | 4887 ft | 283 kts | 130° |
| 2026-05-04 17:57 | 39.41355 | -0.34131 | 5675 ft | 295 kts | 129° |
| 2026-05-04 17:57 | 39.40167 | -0.31974 | 6731 ft | 297 kts | 118° |
| 2026-05-04 17:58 | 39.39715 | -0.29352 | 7567 ft | 307 kts | 86° |
| 2026-05-04 17:58 | 39.40384 | -0.26733 | 8350 ft | 312 kts | 53° |
| 2026-05-04 17:58 | 39.41966 | -0.24888 | 9316 ft | 306 kts | 22° |
| 2026-05-04 17:58 | 39.43986 | -0.24192 | 10193 ft | 302 kts | 2° |
| 2026-05-04 17:59 | 39.46159 | -0.24017 | 10522 ft | 326 kts | 356° |
| 2026-05-04 17:59 | 39.48474 | -0.23988 | 11159 ft | 336 kts | 356° |
| 2026-05-04 17:59 | 39.53199 | -0.23693 | 12921 ft | 344 kts | 1° |
| 2026-05-04 18:00 | 39.55591 | -0.23323 | 13774 ft | 348 kts | 4° |
| 2026-05-04 18:00 | 39.58006 | -0.22852 | 14480 ft | 354 kts | 5° |
| 2026-05-04 18:00 | 39.60456 | -0.22322 | 15175 ft | 359 kts | 5° |
| 2026-05-04 18:00 | 39.62941 | -0.21771 | 15848 ft | 365 kts | 5° |
| 2026-05-04 18:01 | 39.65429 | -0.20931 | 16501 ft | 375 kts | 16° |
| 2026-05-04 18:01 | 39.67828 | -0.19469 | 17164 ft | 386 kts | 27° |
| 2026-05-04 18:01 | 39.70030 | -0.17419 | 17819 ft | 395 kts | 39° |
| 2026-05-04 18:02 | 39.74046 | -0.12369 | 18995 ft | 407 kts | 42° |
| 2026-05-04 18:02 | 39.76078 | -0.09785 | 19562 ft | 411 kts | 42° |
| 2026-05-04 18:02 | 39.78138 | -0.07170 | 20137 ft | 416 kts | 42° |
| 2026-05-04 18:02 | 39.80220 | -0.04525 | 20697 ft | 421 kts | 41° |
| 2026-05-04 18:03 | 39.82480 | -0.02113 | 21317 ft | 420 kts | 31° |
| 2026-05-04 18:03 | 39.85002 | -0.00202 | 21862 ft | 421 kts | 21° |
| 2026-05-04 18:03 | 39.87738 | 0.01156 | 22331 ft | 421 kts | 11° |
| 2026-05-04 18:03 | 39.90574 | 0.02190 | 22837 ft | 426 kts | 10° |
| 2026-05-04 18:04 | 39.93440 | 0.03238 | 23345 ft | 430 kts | 11° |
| 2026-05-04 18:04 | 39.96333 | 0.04306 | 23815 ft | 434 kts | 11° |
| 2026-05-04 18:04 | 40.02192 | 0.06491 | 24717 ft | 441 kts | 11° |
| 2026-05-04 18:05 | 40.05148 | 0.07590 | 25207 ft | 443 kts | 11° |
| 2026-05-04 18:05 | 40.08120 | 0.08698 | 25724 ft | 445 kts | 11° |
| 2026-05-04 18:05 | 40.11105 | 0.09816 | 26176 ft | 448 kts | 11° |
| 2026-05-04 18:05 | 40.14118 | 0.10942 | 26620 ft | 451 kts | 11° |
| 2026-05-04 18:06 | 40.20192 | 0.13215 | 27454 ft | 457 kts | 11° |
| 2026-05-04 18:06 | 40.23257 | 0.14363 | 27839 ft | 460 kts | 11° |
| 2026-05-04 18:06 | 40.26347 | 0.15518 | 28276 ft | 463 kts | 11° |
| 2026-05-04 18:07 | 40.29450 | 0.16677 | 28693 ft | 465 kts | 11° |
| 2026-05-04 18:07 | 40.32574 | 0.17843 | 29095 ft | 468 kts | 11° |
| 2026-05-04 18:07 | 40.35717 | 0.19019 | 29481 ft | 471 kts | 11° |
| 2026-05-04 18:07 | 40.38838 | 0.20189 | 29854 ft | 474 kts | 11° |
| 2026-05-04 18:08 | 40.42020 | 0.21387 | 30197 ft | 477 kts | 11° |
| 2026-05-04 18:08 | 40.45220 | 0.22592 | 30502 ft | 480 kts | 11° |
| 2026-05-04 18:08 | 40.48436 | 0.23805 | 30821 ft | 483 kts | 11° |
| 2026-05-04 18:08 | 40.51676 | 0.25030 | 31120 ft | 485 kts | 11° |
| 2026-05-04 18:09 | 40.58047 | 0.28174 | 31759 ft | 496 kts | 24° |
| 2026-05-04 18:09 | 40.64151 | 0.32402 | 32572 ft | 495 kts | 24° |
| 2026-05-04 18:10 | 40.67199 | 0.34506 | 32986 ft | 495 kts | 24° |
| 2026-05-04 18:10 | 40.70251 | 0.36607 | 33384 ft | 495 kts | 24° |
| 2026-05-04 18:10 | 40.73301 | 0.38708 | 33764 ft | 494 kts | 24° |
| 2026-05-04 18:10 | 40.76350 | 0.40818 | 34116 ft | 495 kts | 24° |
| 2026-05-04 18:11 | 40.79392 | 0.42929 | 34452 ft | 494 kts | 24° |
| 2026-05-04 18:11 | 40.82427 | 0.45040 | 34812 ft | 493 kts | 24° |
| 2026-05-04 18:11 | 40.85459 | 0.47150 | 35134 ft | 492 kts | 24° |
| 2026-05-04 18:11 | 40.88484 | 0.49253 | 35473 ft | 491 kts | 24° |
| 2026-05-04 18:12 | 40.91503 | 0.51356 | 35823 ft | 490 kts | 24° |
| 2026-05-04 18:12 | 40.94512 | 0.53456 | 36200 ft | 488 kts | 24° |
| 2026-05-04 18:12 | 40.97508 | 0.55551 | 36555 ft | 486 kts | 24° |
| 2026-05-04 18:12 | 41.00495 | 0.57637 | 36871 ft | 485 kts | 24° |
| 2026-05-04 18:13 | 41.03440 | 0.59690 | 37169 ft | 484 kts | 24° |
| 2026-05-04 18:13 | 41.06451 | 0.61789 | 37481 ft | 483 kts | 24° |
| 2026-05-04 18:13 | 41.12360 | 0.65875 | 37913 ft | 480 kts | 20° |
| 2026-05-04 18:14 | 41.15450 | 0.67452 | 37937 ft | 472 kts | 12° |
| 2026-05-04 18:14 | 41.21730 | 0.69901 | 37935 ft | 470 kts | 11° |
| 2026-05-04 18:15 | 41.34273 | 0.74809 | 37933 ft | 470 kts | 12° |
| 2026-05-04 18:16 | 41.40541 | 0.77279 | 37909 ft | 470 kts | 11° |
| 2026-05-04 18:16 | 41.46818 | 0.79745 | 37909 ft | 471 kts | 11° |
| 2026-05-04 18:17 | 41.56253 | 0.83446 | 37943 ft | 472 kts | 12° |
| 2026-05-04 18:18 | 41.65704 | 0.87172 | 37947 ft | 472 kts | 12° |